Mount Storm, West Virginia
Current Conditions -  °F | °C
As of 4:35 AM on Friday 28 Nov 2014 (Local Time) from KW99 Reporting Station
Broken Clouds Broken Clouds  
Wind Chill: 23°   Ceiling: 4600
Heat Index: 31°   Visibility: 10mi
Dew Point: 15°   Wind: 9mph
Humidity: 52%   Direction: 320°NW
Pressure: 30.26"   Gusts: 20mph
Location:  39.28°N, 79.24°W
Report Text: KW99 280935Z AUTO 32008G17KT 10SM SCT039 BKN046 BKN060 M01/M09 A3026 RMK AO2 T10061093
Loading
Personal Weather Stations






























Interactive Weather Map New forecast layout! Learn more

10-Day Weather Forecast

Advertisements
Track Severe Weather on mobile